Time;durP1;ratioP1;P1;durP2;ratioP2;P2;SDS_P1;SDS_P2;PMS_P1;PMS_P2;Temp;Humidity;BMP_temperature;BMP_pressure;BME280_temperature;BME280_humidity;BME280_pressure;Samples;Min_cycle;Max_cycle;Signal;HPM_P1;HPM_P2
2022/10/15 00:01:28;;;;;;;56.60;32.20;;;;;;;;;;745483;186;919771;-66
2022/10/15 00:03:54;;;;;;;56.53;32.07;;;;;;;;;;741432;186;914138;-61
2022/10/15 00:06:19;;;;;;;54.50;34.00;;;;;;;;;;745917;186;919518;-66
2022/10/15 00:08:45;;;;;;;55.07;33.80;;;;;;;;;;740497;184;920718;-61
2022/10/15 00:11:12;;;;;;;56.57;34.03;;;;;;;;;;741613;185;910708;-61
2022/10/15 00:13:38;;;;;;;60.80;34.60;;;;;;;;;;749066;187;909501;-61
2022/10/15 00:16:04;;;;;;;59.43;34.97;;;;;;;;;;740850;185;931344;-61
2022/10/15 00:18:30;;;;;;;99.87;35.37;;;;;;;;;;743987;185;920876;-61
2022/10/15 00:20:56;;;;;;;56.90;33.13;;;;;;;;;;748210;185;819662;-66
2022/10/15 00:23:22;;;;;;;57.00;32.67;;;;;;;;;;743529;187;824470;-66
2022/10/15 00:25:48;;;;;;;49.93;31.57;;;;;;;;;;743253;184;912895;-65
2022/10/15 00:28:13;;;;;;;47.70;31.20;;;;;;;;;;745025;186;895202;-65
2022/10/15 00:30:39;;;;;;;88.73;33.30;;;;;;;;;;746990;187;921297;-61
2022/10/15 00:33:05;;;;;;;152.20;37.35;;;;;;;;;;741334;186;886465;-66
2022/10/15 00:35:31;;;;;;;52.10;30.67;;;;;;;;;;740725;186;917887;-61
2022/10/15 00:37:57;;;;;;;328.80;45.20;;;;;;;;;;749089;187;816374;-66
2022/10/15 00:40:23;;;;;;;48.10;28.80;;;;;;;;;;746319;186;918880;-66
2022/10/15 00:42:48;;;;;;;98.43;32.10;;;;;;;;;;743399;186;918699;-65
2022/10/15 00:45:14;;;;;;;130.13;31.07;;;;;;;;;;750117;186;922849;-61
2022/10/15 00:47:40;;;;;;;291.27;39.60;;;;;;;;;;745601;186;814782;-61
2022/10/15 00:50:06;;;;;;;43.50;27.87;;;;;;;;;;741159;187;915247;-60
2022/10/15 00:52:35;;;;;;;41.10;27.10;;;;;;;;;;744439;187;917238;-61
2022/10/15 00:55:00;;;;;;;45.30;27.03;;;;;;;;;;748823;185;913650;-61
2022/10/15 00:57:26;;;;;;;44.50;25.63;;;;;;;;;;742456;185;917163;-65
2022/10/15 00:59:52;;;;;;;36.93;23.17;;;;;;;;;;742185;187;1022675;-65
2022/10/15 01:02:18;;;;;;;42.20;25.93;;;;;;;;;;749391;187;906861;-65
2022/10/15 01:04:44;;;;;;;48.63;25.43;;;;;;;;;;744387;187;918683;-64
2022/10/15 01:07:10;;;;;;;239.50;32.60;;;;;;;;;;743306;186;918690;-65
2022/10/15 01:09:36;;;;;;;172.73;30.92;;;;;;;;;;747871;186;918943;-64
2022/10/15 01:12:01;;;;;;;273.90;33.60;;;;;;;;;;743693;185;915009;-59
2022/10/15 01:14:33;;;;;;;53.77;27.73;;;;;;;;;;740367;187;916097;-65
2022/10/15 01:17:01;;;;;;;52.03;26.93;;;;;;;;;;741753;187;1034066;-61
2022/10/15 01:19:43;;;;;;;50.73;24.43;;;;;;;;;;746908;187;920107;-60
2022/10/15 01:22:09;;;;;;;63.77;27.23;;;;;;;;;;746558;186;814857;-60
2022/10/15 01:24:36;;;;;;;72.93;25.77;;;;;;;;;;744411;186;711143;-64
2022/10/15 01:27:06;;;;;;;113.17;27.87;;;;;;;;;;743892;186;918674;-61
2022/10/15 01:29:33;;;;;;;122.57;27.80;;;;;;;;;;743929;186;923415;-64
2022/10/15 01:32:02;;;;;;;85.17;27.10;;;;;;;;;;743505;186;914455;-60
2022/10/15 01:34:30;;;;;;;121.63;27.77;;;;;;;;;;742815;187;915574;-65
2022/10/15 01:36:56;;;;;;;72.33;25.80;;;;;;;;;;740675;187;921066;-62
2022/10/15 01:39:22;;;;;;;82.97;23.20;;;;;;;;;;746822;186;816113;-61
2022/10/15 01:41:49;;;;;;;45.10;25.47;;;;;;;;;;743780;186;919346;-65
2022/10/15 01:44:15;;;;;;;45.93;23.13;;;;;;;;;;741979;186;918898;-65
2022/10/15 01:46:42;;;;;;;88.90;26.50;;;;;;;;;;742362;186;918723;-64
2022/10/15 01:49:08;;;;;;;64.63;25.87;;;;;;;;;;747886;186;918935;-65
2022/10/15 01:51:34;;;;;;;57.40;26.27;;;;;;;;;;743364;186;920276;-60
2022/10/15 01:54:00;;;;;;;55.30;24.73;;;;;;;;;;745308;185;917957;-61
2022/10/15 01:56:26;;;;;;;40.80;27.13;;;;;;;;;;748937;185;918988;-61
2022/10/15 01:58:52;;;;;;;52.97;24.70;;;;;;;;;;743578;187;819850;-65
2022/10/15 02:01:18;;;;;;;37.33;24.33;;;;;;;;;;741813;187;920647;-64
2022/10/15 02:03:46;;;;;;;33.08;23.70;;;;;;;;;;747279;187;928169;-65
2022/10/15 02:06:11;;;;;;;36.70;24.70;;;;;;;;;;745071;185;920997;-61
2022/10/15 02:08:38;;;;;;;41.13;24.35;;;;;;;;;;740792;186;918774;-59
2022/10/15 02:11:04;;;;;;;36.87;24.30;;;;;;;;;;743501;184;917641;-64
2022/10/15 02:13:34;;;;;;;47.93;26.50;;;;;;;;;;749974;186;814029;-61
2022/10/15 02:16:00;;;;;;;41.40;26.90;;;;;;;;;;739187;187;916881;-64
2022/10/15 02:18:27;;;;;;;43.87;27.23;;;;;;;;;;741807;187;917850;-60
2022/10/15 02:21:02;;;;;;;60.03;32.60;;;;;;;;;;743976;185;917537;-61
2022/10/15 02:23:31;;;;;;;46.30;30.05;;;;;;;;;;745868;188;916610;-60
2022/10/15 02:25:57;;;;;;;54.80;32.27;;;;;;;;;;739047;187;913859;-64
2022/10/15 02:28:24;;;;;;;51.63;29.57;;;;;;;;;;740929;187;917415;-64
2022/10/15 02:30:49;;;;;;;55.13;28.90;;;;;;;;;;740931;185;923345;-61
2022/10/15 02:33:14;;;;;;;48.70;28.90;;;;;;;;;;749951;186;908592;-60
2022/10/15 02:35:40;;;;;;;44.97;29.40;;;;;;;;;;740110;187;927784;-60
2022/10/15 02:38:06;;;;;;;55.10;29.80;;;;;;;;;;740651;185;917867;-61
2022/10/15 02:40:32;;;;;;;49.27;30.47;;;;;;;;;;747249;187;921934;-59
2022/10/15 02:42:58;;;;;;;50.83;28.65;;;;;;;;;;742542;186;918380;-60
2022/10/15 02:45:24;;;;;;;49.87;28.90;;;;;;;;;;743963;187;994226;-60
2022/10/15 02:47:49;;;;;;;52.97;29.63;;;;;;;;;;749098;185;818313;-61
2022/10/15 02:50:15;;;;;;;51.30;30.60;;;;;;;;;;746289;187;628095;-61
2022/10/15 02:52:41;;;;;;;56.90;31.80;;;;;;;;;;746470;187;620823;-64
2022/10/15 02:55:08;;;;;;;50.90;30.95;;;;;;;;;;746938;187;817446;-61
2022/10/15 02:57:34;;;;;;;58.03;31.83;;;;;;;;;;744763;187;919338;-61
2022/10/15 03:00:00;;;;;;;65.73;33.77;;;;;;;;;;742938;186;816899;-60
2022/10/15 03:02:26;;;;;;;55.00;34.22;;;;;;;;;;752616;185;915394;-66
2022/10/15 03:04:51;;;;;;;60.87;35.30;;;;;;;;;;744406;185;915409;-65
2022/10/15 03:07:17;;;;;;;64.97;35.60;;;;;;;;;;752756;185;915843;-59
2022/10/15 03:09:43;;;;;;;68.63;32.70;;;;;;;;;;742350;187;1016435;-64
2022/10/15 03:12:09;;;;;;;51.40;32.67;;;;;;;;;;743821;186;919440;-61
2022/10/15 03:14:35;;;;;;;59.30;34.67;;;;;;;;;;746983;188;918702;-59
2022/10/15 03:17:01;;;;;;;54.13;31.33;;;;;;;;;;739773;187;918490;-61
2022/10/15 03:19:27;;;;;;;63.10;33.95;;;;;;;;;;743519;185;840872;-65
2022/10/15 03:21:52;;;;;;;55.83;32.40;;;;;;;;;;747362;187;816814;-65
2022/10/15 03:24:18;;;;;;;58.20;34.00;;;;;;;;;;743190;187;918635;-65
2022/10/15 03:26:44;;;;;;;61.63;34.08;;;;;;;;;;741981;185;912417;-65
2022/10/15 03:29:10;;;;;;;55.63;31.57;;;;;;;;;;748285;186;815324;-60
2022/10/15 03:31:36;;;;;;;54.13;29.10;;;;;;;;;;745113;187;921027;-66
2022/10/15 03:34:02;;;;;;;52.17;33.47;;;;;;;;;;744170;185;915629;-61
2022/10/15 03:36:27;;;;;;;56.67;31.87;;;;;;;;;;748843;187;802805;-60
2022/10/15 03:38:53;;;;;;;51.10;30.23;;;;;;;;;;741711;187;918799;-65
2022/10/15 03:41:19;;;;;;;49.27;30.80;;;;;;;;;;740696;187;918445;-60
2022/10/15 03:43:45;;;;;;;50.53;32.40;;;;;;;;;;742315;186;919058;-65
2022/10/15 03:46:11;;;;;;;62.23;36.00;;;;;;;;;;746997;187;919344;-61
2022/10/15 03:48:37;;;;;;;91.53;48.10;;;;;;;;;;742390;184;918710;-66
2022/10/15 03:51:03;;;;;;;85.50;49.50;;;;;;;;;;737768;186;921597;-66
2022/10/15 03:53:28;;;;;;;83.87;48.30;;;;;;;;;;746776;187;915686;-66
2022/10/15 03:55:54;;;;;;;70.37;41.60;;;;;;;;;;743988;185;916013;-65
2022/10/15 03:58:20;;;;;;;102.12;52.83;;;;;;;;;;742806;187;912308;-60
2022/10/15 04:00:46;;;;;;;109.13;65.87;;;;;;;;;;747555;186;915581;-62
2022/10/15 04:03:12;;;;;;;108.47;70.37;;;;;;;;;;741803;186;914726;-62
2022/10/15 04:05:38;;;;;;;78.75;49.13;;;;;;;;;;739937;186;918800;-65
2022/10/15 04:08:03;;;;;;;71.57;45.53;;;;;;;;;;740769;187;916447;-64
2022/10/15 04:10:29;;;;;;;101.27;55.67;;;;;;;;;;750354;186;915750;-60
2022/10/15 04:12:55;;;;;;;112.90;63.80;;;;;;;;;;741742;185;920828;-61
2022/10/15 04:15:21;;;;;;;91.40;54.20;;;;;;;;;;744304;185;908333;-61
2022/10/15 04:17:47;;;;;;;56.80;34.73;;;;;;;;;;750428;186;915771;-60
2022/10/15 04:20:13;;;;;;;75.97;42.77;;;;;;;;;;749541;185;819979;-65
2022/10/15 04:22:39;;;;;;;60.87;37.37;;;;;;;;;;744501;187;918363;-66
2022/10/15 04:25:05;;;;;;;72.83;45.00;;;;;;;;;;748008;186;918294;-65
2022/10/15 04:27:31;;;;;;;119.67;69.23;;;;;;;;;;743086;186;918965;-65
2022/10/15 04:29:57;;;;;;;110.60;64.77;;;;;;;;;;742793;184;917961;-65
2022/10/15 04:32:23;;;;;;;119.63;70.60;;;;;;;;;;742618;186;918325;-62
2022/10/15 04:34:48;;;;;;;116.82;72.03;;;;;;;;;;748766;184;918441;-65
2022/10/15 04:37:14;;;;;;;92.47;58.37;;;;;;;;;;742651;187;918974;-61
2022/10/15 04:39:40;;;;;;;59.23;38.00;;;;;;;;;;741246;186;919437;-61
2022/10/15 04:42:06;;;;;;;114.63;78.17;;;;;;;;;;749475;187;917961;-61
2022/10/15 04:44:32;;;;;;;64.90;42.53;;;;;;;;;;744497;186;918493;-66
2022/10/15 04:46:58;;;;;;;59.63;33.87;;;;;;;;;;747489;186;918566;-65
2022/10/15 04:49:23;;;;;;;45.30;29.13;;;;;;;;;;748037;186;919279;-65
2022/10/15 04:51:49;;;;;;;95.03;53.87;;;;;;;;;;741172;187;919610;-66
2022/10/15 04:54:15;;;;;;;109.33;59.50;;;;;;;;;;742468;186;920305;-66
2022/10/15 04:56:41;;;;;;;117.63;65.87;;;;;;;;;;747962;185;919712;-66
2022/10/15 04:59:07;;;;;;;103.97;58.20;;;;;;;;;;741038;185;822513;-65
2022/10/15 05:01:33;;;;;;;79.20;49.13;;;;;;;;;;741723;187;904647;-61
2022/10/15 05:03:59;;;;;;;92.07;56.93;;;;;;;;;;745874;187;815731;-65
2022/10/15 05:06:24;;;;;;;92.50;53.23;;;;;;;;;;749176;185;816624;-60
2022/10/15 05:08:50;;;;;;;73.57;45.47;;;;;;;;;;743266;187;918409;-62
2022/10/15 05:11:16;;;;;;;76.73;48.90;;;;;;;;;;743846;186;918663;-62
2022/10/15 05:13:42;;;;;;;77.93;48.08;;;;;;;;;;747437;187;906963;-61
2022/10/15 05:16:10;;;;;;;74.33;49.33;;;;;;;;;;743026;187;919187;-61
2022/10/15 05:18:35;;;;;;;69.78;44.47;;;;;;;;;;742783;187;816910;-62
2022/10/15 05:21:01;;;;;;;68.10;45.70;;;;;;;;;;746626;185;917102;-61
2022/10/15 05:23:27;;;;;;;68.23;45.00;;;;;;;;;;741763;186;868004;-62
2022/10/15 05:25:53;;;;;;;63.63;45.85;;;;;;;;;;742855;187;813548;-61
2022/10/15 05:28:19;;;;;;;52.80;37.20;;;;;;;;;;743691;187;981920;-64
2022/10/15 05:30:45;;;;;;;54.60;36.30;;;;;;;;;;749438;186;918842;-60
2022/10/15 05:33:11;;;;;;;57.50;35.47;;;;;;;;;;745518;186;918591;-66
2022/10/15 05:35:37;;;;;;;54.37;35.47;;;;;;;;;;743229;187;911684;-66
2022/10/15 05:38:03;;;;;;;55.60;34.17;;;;;;;;;;750308;184;636968;-65
2022/10/15 05:40:28;;;;;;;55.90;35.90;;;;;;;;;;746565;185;653221;-62
2022/10/15 05:42:55;;;;;;;51.90;33.30;;;;;;;;;;746218;185;816310;-62
2022/10/15 05:45:20;;;;;;;53.25;34.30;;;;;;;;;;748027;186;918881;-66
2022/10/15 05:47:46;;;;;;;49.70;34.77;;;;;;;;;;745889;187;616699;-66
2022/10/15 05:50:12;;;;;;;43.33;31.77;;;;;;;;;;746865;185;626258;-62
2022/10/15 05:52:38;;;;;;;45.88;33.00;;;;;;;;;;740242;186;918100;-62
2022/10/15 05:55:04;;;;;;;50.60;33.87;;;;;;;;;;750740;185;817296;-66
2022/10/15 05:57:30;;;;;;;47.27;32.60;;;;;;;;;;740901;187;816720;-65
2022/10/15 05:59:55;;;;;;;50.50;35.80;;;;;;;;;;744683;186;918511;-62
2022/10/15 06:02:21;;;;;;;47.20;34.60;;;;;;;;;;746756;187;821170;-61
2022/10/15 06:04:47;;;;;;;49.28;34.28;;;;;;;;;;740696;187;919271;-62
2022/10/15 06:07:13;;;;;;;48.80;33.00;;;;;;;;;;741302;187;915442;-62
2022/10/15 06:09:39;;;;;;;52.37;34.17;;;;;;;;;;749102;186;918674;-66
2022/10/15 06:12:05;;;;;;;41.42;31.23;;;;;;;;;;744450;187;939531;-66
2022/10/15 06:14:30;;;;;;;46.10;30.70;;;;;;;;;;741806;187;919473;-66
2022/10/15 06:16:56;;;;;;;46.60;35.07;;;;;;;;;;741007;187;918773;-65
2022/10/15 06:19:22;;;;;;;46.07;30.10;;;;;;;;;;745588;188;946613;-66
2022/10/15 06:21:48;;;;;;;48.53;35.30;;;;;;;;;;738368;188;918963;-66
2022/10/15 06:24:14;;;;;;;44.15;31.87;;;;;;;;;;744506;187;916666;-63
2022/10/15 06:26:40;;;;;;;49.00;34.20;;;;;;;;;;749839;184;628341;-66
2022/10/15 06:29:06;;;;;;;49.60;33.57;;;;;;;;;;741397;187;914258;-62
2022/10/15 06:31:31;;;;;;;47.77;33.43;;;;;;;;;;742226;185;922526;-67
2022/10/15 06:33:57;;;;;;;46.20;31.67;;;;;;;;;;746640;186;814392;-62
2022/10/15 06:36:24;;;;;;;47.13;33.63;;;;;;;;;;744839;186;816850;-62
2022/10/15 06:38:49;;;;;;;50.30;33.53;;;;;;;;;;747532;186;813219;-65
2022/10/15 06:41:15;;;;;;;46.87;33.07;;;;;;;;;;749304;185;798113;-61
2022/10/15 06:43:41;;;;;;;44.80;33.13;;;;;;;;;;741814;187;918665;-62
2022/10/15 06:46:07;;;;;;;45.93;31.83;;;;;;;;;;744695;186;816083;-67
2022/10/15 06:48:33;;;;;;;44.27;30.00;;;;;;;;;;745666;184;818374;-65
2022/10/15 06:50:58;;;;;;;41.97;31.23;;;;;;;;;;747434;187;911928;-66
2022/10/15 06:53:24;;;;;;;52.90;29.27;;;;;;;;;;746430;186;636474;-62
2022/10/15 06:55:50;;;;;;;38.88;25.88;;;;;;;;;;743406;187;859136;-66
2022/10/15 06:58:16;;;;;;;32.17;25.63;;;;;;;;;;750597;187;859649;-62
2022/10/15 07:00:42;;;;;;;41.33;25.63;;;;;;;;;;742556;187;913694;-66
2022/10/15 07:03:08;;;;;;;44.50;26.80;;;;;;;;;;744056;187;919726;-61
2022/10/15 07:05:34;;;;;;;33.60;24.97;;;;;;;;;;748645;187;724245;-65
2022/10/15 07:08:00;;;;;;;31.80;24.50;;;;;;;;;;739933;184;911075;-61
2022/10/15 07:10:25;;;;;;;31.10;21.92;;;;;;;;;;742609;187;906118;-60
2022/10/15 07:12:51;;;;;;;30.53;22.63;;;;;;;;;;741491;186;919158;-65
2022/10/15 07:15:18;;;;;;;30.37;21.70;;;;;;;;;;751676;186;633490;-61
2022/10/15 07:17:45;;;;;;;31.37;23.83;;;;;;;;;;743899;187;913901;-65
2022/10/15 07:20:11;;;;;;;25.00;20.77;;;;;;;;;;742145;186;916289;-61
2022/10/15 07:22:36;;;;;;;28.57;20.20;;;;;;;;;;745706;186;915646;-66
2022/10/15 07:25:02;;;;;;;26.47;20.80;;;;;;;;;;744793;184;918140;-66
2022/10/15 07:27:28;;;;;;;27.30;18.53;;;;;;;;;;751721;186;630357;-65
2022/10/15 07:29:54;;;;;;;22.57;17.60;;;;;;;;;;750959;187;637157;-65
2022/10/15 07:32:20;;;;;;;21.40;17.50;;;;;;;;;;741409;187;819755;-66
2022/10/15 07:34:46;;;;;;;21.30;17.40;;;;;;;;;;744007;186;718773;-65
2022/10/15 07:37:11;;;;;;;26.77;18.23;;;;;;;;;;745118;186;916298;-61
2022/10/15 07:39:37;;;;;;;21.10;16.70;;;;;;;;;;749932;186;640502;-65
2022/10/15 07:42:03;;;;;;;22.50;18.03;;;;;;;;;;744722;185;628976;-66
2022/10/15 07:44:29;;;;;;;31.47;17.20;;;;;;;;;;743999;186;832222;-62
2022/10/15 07:46:55;;;;;;;27.17;16.03;;;;;;;;;;748231;187;917813;-66
2022/10/15 07:49:21;;;;;;;23.60;17.97;;;;;;;;;;746844;186;913570;-65
2022/10/15 07:51:47;;;;;;;19.17;15.80;;;;;;;;;;745886;187;901543;-65
2022/10/15 07:54:12;;;;;;;22.57;16.20;;;;;;;;;;749718;186;738951;-64
2022/10/15 07:56:38;;;;;;;18.57;15.73;;;;;;;;;;740524;187;919620;-60
2022/10/15 07:59:04;;;;;;;21.60;15.50;;;;;;;;;;741328;188;920579;-66
2022/10/15 08:01:30;;;;;;;24.20;15.07;;;;;;;;;;743989;187;918192;-64
2022/10/15 08:03:56;;;;;;;19.07;14.07;;;;;;;;;;741312;187;918090;-61
2022/10/15 08:06:22;;;;;;;22.40;15.70;;;;;;;;;;741909;186;918024;-65
2022/10/15 08:08:48;;;;;;;21.20;14.60;;;;;;;;;;749432;186;628160;-64
2022/10/15 08:11:13;;;;;;;20.80;14.23;;;;;;;;;;748738;186;913508;-66
2022/10/15 08:13:41;;;;;;;27.57;15.40;;;;;;;;;;739943;186;916459;-61
2022/10/15 08:16:06;;;;;;;24.00;13.87;;;;;;;;;;745791;186;626981;-61
2022/10/15 08:18:32;;;;;;;22.73;15.00;;;;;;;;;;750794;187;620179;-60
2022/10/15 08:20:58;;;;;;;23.80;14.00;;;;;;;;;;747794;184;620350;-61
2022/10/15 08:23:23;;;;;;;17.67;13.33;;;;;;;;;;744570;187;627333;-66
2022/10/15 08:25:50;;;;;;;20.97;15.30;;;;;;;;;;746675;186;914132;-65
2022/10/15 08:28:15;;;;;;;20.13;12.60;;;;;;;;;;748087;185;908868;-67
2022/10/15 08:30:41;;;;;;;19.08;13.70;;;;;;;;;;742122;186;819017;-62
2022/10/15 08:33:07;;;;;;;23.20;12.77;;;;;;;;;;744620;186;814142;-59
2022/10/15 08:35:37;;;;;;;17.97;13.60;;;;;;;;;;746047;187;916334;-66
2022/10/15 08:38:00;;;;;;;15.37;13.13;;;;;;;;;;740921;186;922961;-61
2022/10/15 08:40:26;;;;;;;17.10;12.27;;;;;;;;;;741145;187;815856;-66
2022/10/15 08:42:51;;;;;;;18.13;12.50;;;;;;;;;;747546;187;815510;-60
2022/10/15 08:45:17;;;;;;;20.10;14.20;;;;;;;;;;743602;185;912769;-62
2022/10/15 08:47:45;;;;;;;17.98;12.55;;;;;;;;;;746309;184;916343;-66
2022/10/15 08:50:17;;;;;;;20.20;13.60;;;;;;;;;;742395;186;914028;-61
2022/10/15 08:52:43;;;;;;;17.53;12.20;;;;;;;;;;747633;186;824563;-61
2022/10/15 08:55:11;;;;;;;16.93;12.70;;;;;;;;;;742574;186;919054;-66
2022/10/15 08:57:38;;;;;;;17.10;12.73;;;;;;;;;;740422;187;919208;-66
2022/10/15 09:00:03;;;;;;;14.33;12.70;;;;;;;;;;747101;186;817739;-61
2022/10/15 09:02:46;;;;;;;16.90;12.57;;;;;;;;;;744448;186;916279;-65
2022/10/15 09:05:17;;;;;;;19.07;13.87;;;;;;;;;;745226;186;918775;-61
2022/10/15 09:07:59;;;;;;;15.60;12.20;;;;;;;;;;742401;186;918273;-66
2022/10/15 09:10:30;;;;;;;21.27;13.37;;;;;;;;;;743173;186;819223;-59
2022/10/15 09:12:56;;;;;;;19.33;13.53;;;;;;;;;;742324;185;916916;-59
2022/10/15 09:15:22;;;;;;;18.87;13.53;;;;;;;;;;747171;186;916895;-64
2022/10/15 09:17:47;;;;;;;15.80;12.23;;;;;;;;;;746145;186;954467;-60
2022/10/15 09:20:13;;;;;;;20.80;12.43;;;;;;;;;;743524;184;818733;-65
2022/10/15 09:22:39;;;;;;;16.70;13.17;;;;;;;;;;743903;187;921371;-60
2022/10/15 09:25:21;;;;;;;21.43;13.43;;;;;;;;;;747499;184;748090;-66
2022/10/15 09:27:47;;;;;;;20.13;14.10;;;;;;;;;;750045;185;913237;-59
2022/10/15 09:30:18;;;;;;;26.83;14.67;;;;;;;;;;745271;185;916616;-65
2022/10/15 09:32:44;;;;;;;19.00;14.33;;;;;;;;;;743670;186;887472;-66
2022/10/15 09:35:11;;;;;;;16.30;12.40;;;;;;;;;;748607;185;810820;-65
2022/10/15 09:37:36;;;;;;;17.40;14.07;;;;;;;;;;743361;186;917903;-60
2022/10/15 09:40:02;;;;;;;18.62;13.00;;;;;;;;;;740888;184;919584;-66
2022/10/15 09:42:29;;;;;;;21.00;14.33;;;;;;;;;;740120;187;919268;-61
2022/10/15 09:44:53;;;;;;;18.77;14.30;;;;;;;;;;743520;185;914296;-65
2022/10/15 09:47:22;;;;;;;22.30;15.63;;;;;;;;;;737946;186;927822;-59
2022/10/15 09:49:49;;;;;;;18.05;14.32;;;;;;;;;;741641;187;908904;-60
2022/10/15 09:52:17;;;;;;;21.00;15.07;;;;;;;;;;747624;187;919273;-60
2022/10/15 09:54:43;;;;;;;20.37;14.57;;;;;;;;;;743148;186;919057;-65
2022/10/15 09:57:08;;;;;;;26.63;16.00;;;;;;;;;;744280;186;824291;-60
2022/10/15 09:59:35;;;;;;;25.48;16.48;;;;;;;;;;745864;186;938234;-59
2022/10/15 10:02:01;;;;;;;26.00;16.57;;;;;;;;;;743615;186;918959;-61
2022/10/15 10:04:27;;;;;;;23.60;16.97;;;;;;;;;;741168;187;919785;-59
2022/10/15 10:06:53;;;;;;;24.60;15.70;;;;;;;;;;744163;186;742514;-60
2022/10/15 10:09:20;;;;;;;22.20;17.73;;;;;;;;;;749515;184;620691;-66
2022/10/15 10:11:48;;;;;;;21.77;15.57;;;;;;;;;;742172;186;820620;-66
2022/10/15 10:14:13;;;;;;;17.23;14.77;;;;;;;;;;744013;186;820253;-66
2022/10/15 10:16:39;;;;;;;18.40;10.07;;;;;;;;;;748115;186;914738;-67
2022/10/15 10:19:05;;;;;;;20.40;14.90;;;;;;;;;;745341;186;920241;-60
2022/10/15 10:21:31;;;;;;;21.57;14.30;;;;;;;;;;743983;187;814257;-60
2022/10/15 10:23:57;;;;;;;22.63;14.33;;;;;;;;;;742026;186;916022;-65
2022/10/15 10:26:23;;;;;;;21.80;14.33;;;;;;;;;;744816;186;816650;-66
2022/10/15 10:28:49;;;;;;;24.23;12.47;;;;;;;;;;742520;186;902253;-60
2022/10/15 10:31:15;;;;;;;21.93;15.03;;;;;;;;;;743399;186;834503;-60
2022/10/15 10:33:41;;;;;;;18.90;14.23;;;;;;;;;;748919;185;811398;-65
2022/10/15 10:36:07;;;;;;;17.60;12.73;;;;;;;;;;745321;186;815698;-65
2022/10/15 10:38:33;;;;;;;19.27;12.80;;;;;;;;;;738732;187;924286;-61
2022/10/15 10:41:04;;;;;;;21.13;14.37;;;;;;;;;;747705;186;836301;-60
2022/10/15 10:43:26;;;;;;;14.57;11.90;;;;;;;;;;742429;187;921590;-66
2022/10/15 10:46:00;;;;;;;17.27;12.10;;;;;;;;;;742441;187;917685;-60
2022/10/15 10:48:40;;;;;;;22.83;12.90;;;;;;;;;;740425;186;921861;-60
2022/10/15 10:51:07;;;;;;;17.60;12.37;;;;;;;;;;742538;187;819324;-67
2022/10/15 10:53:33;;;;;;;16.87;10.60;;;;;;;;;;747601;187;911141;-60
2022/10/15 10:55:59;;;;;;;15.20;10.13;;;;;;;;;;744076;186;818919;-61
2022/10/15 10:58:25;;;;;;;12.52;11.00;;;;;;;;;;742029;187;912398;-60
2022/10/15 11:00:51;;;;;;;16.00;11.63;;;;;;;;;;747500;186;816916;-67
2022/10/15 11:03:35;;;;;;;15.07;11.70;;;;;;;;;;742618;186;919215;-65
2022/10/15 11:06:00;;;;;;;15.30;11.20;;;;;;;;;;742710;187;819135;-61
2022/10/15 11:08:32;;;;;;;20.85;13.10;;;;;;;;;;742502;187;819506;-66
2022/10/15 11:10:58;;;;;;;16.53;11.20;;;;;;;;;;741979;186;828398;-60
2022/10/15 11:13:27;;;;;;;15.30;11.77;;;;;;;;;;747748;186;818899;-61
2022/10/15 11:16:04;;;;;;;14.33;10.93;;;;;;;;;;747765;186;919565;-60
2022/10/15 11:18:36;;;;;;;16.00;10.93;;;;;;;;;;743725;185;921159;-66
2022/10/15 11:21:10;;;;;;;14.23;11.13;;;;;;;;;;742714;187;915383;-67
2022/10/15 11:23:51;;;;;;;16.10;11.90;;;;;;;;;;743033;185;966235;-67
2022/10/15 11:26:22;;;;;;;18.37;10.93;;;;;;;;;;748558;186;718688;-60
2022/10/15 11:28:51;;;;;;;14.17;9.97;;;;;;;;;;748333;186;919195;-60
2022/10/15 11:31:18;;;;;;;14.30;11.03;;;;;;;;;;751375;186;915375;-67
2022/10/15 11:33:43;;;;;;;16.90;12.03;;;;;;;;;;742575;186;918489;-66
2022/10/15 11:36:25;;;;;;;15.87;11.70;;;;;;;;;;743136;185;919815;-60
2022/10/15 11:38:54;;;;;;;17.57;10.30;;;;;;;;;;740662;186;915574;-60
2022/10/15 11:41:32;;;;;;;20.23;12.07;;;;;;;;;;749341;185;813352;-60
2022/10/15 11:44:03;;;;;;;15.40;10.50;;;;;;;;;;747509;184;923240;-60
2022/10/15 11:46:36;;;;;;;15.97;12.67;;;;;;;;;;744804;184;919236;-60
2022/10/15 11:49:04;;;;;;;15.77;12.13;;;;;;;;;;740223;185;905192;-60
2022/10/15 11:51:33;;;;;;;15.40;11.77;;;;;;;;;;743393;185;810062;-60
2022/10/15 11:54:14;;;;;;;20.35;12.50;;;;;;;;;;745941;185;915332;-60
2022/10/15 11:56:40;;;;;;;24.33;13.50;;;;;;;;;;749485;184;824204;-63
2022/10/15 11:59:23;;;;;;;15.10;11.67;;;;;;;;;;740986;185;913685;-66
2022/10/15 12:01:49;;;;;;;14.23;11.40;;;;;;;;;;739319;186;913613;-67
2022/10/15 12:04:18;;;;;;;14.68;11.35;;;;;;;;;;740474;186;1015885;-67
2022/10/15 12:06:43;;;;;;;13.77;10.10;;;;;;;;;;740088;187;919136;-65
2022/10/15 12:09:09;;;;;;;15.13;12.18;;;;;;;;;;747624;186;918714;-66
2022/10/15 12:11:41;;;;;;;15.37;11.63;;;;;;;;;;743496;187;918462;-66
2022/10/15 12:14:22;;;;;;;11.52;9.77;;;;;;;;;;741826;185;912862;-65
2022/10/15 12:16:54;;;;;;;12.90;10.40;;;;;;;;;;739542;186;919398;-64
2022/10/15 12:19:19;;;;;;;15.50;10.80;;;;;;;;;;744694;187;919089;-60
2022/10/15 12:22:05;;;;;;;15.13;10.93;;;;;;;;;;750877;186;917966;-66
2022/10/15 12:24:47;;;;;;;12.80;10.43;;;;;;;;;;749046;186;918198;-59
2022/10/15 12:27:29;;;;;;;14.70;11.23;;;;;;;;;;748133;187;868723;-60
2022/10/15 12:30:15;;;;;;;16.80;10.20;;;;;;;;;;751598;186;918268;-60
2022/10/15 12:32:41;;;;;;;14.10;10.27;;;;;;;;;;751537;187;921627;-60
2022/10/15 12:35:07;;;;;;;14.53;10.30;;;;;;;;;;742525;186;919497;-63
2022/10/15 12:37:34;;;;;;;16.40;11.83;;;;;;;;;;745630;187;919295;-66
2022/10/15 12:39:59;;;;;;;12.18;9.35;;;;;;;;;;747352;187;919706;-66
2022/10/15 12:42:25;;;;;;;13.60;10.37;;;;;;;;;;746645;185;919023;-61
2022/10/15 12:44:51;;;;;;;12.40;9.60;;;;;;;;;;742546;187;919048;-59
2022/10/15 12:47:17;;;;;;;11.87;9.93;;;;;;;;;;743450;187;919940;-60
2022/10/15 12:49:46;;;;;;;12.47;9.73;;;;;;;;;;741544;186;816500;-60
2022/10/15 12:52:30;;;;;;;17.43;10.53;;;;;;;;;;745560;187;859245;-59
2022/10/15 12:54:56;;;;;;;15.90;9.70;;;;;;;;;;741421;185;917383;-59
2022/10/15 12:57:27;;;;;;;12.83;8.83;;;;;;;;;;739414;187;918852;-66
2022/10/15 12:59:53;;;;;;;14.23;8.90;;;;;;;;;;743593;185;923144;-59
2022/10/15 13:02:25;;;;;;;15.53;10.07;;;;;;;;;;744052;187;918646;-60
2022/10/15 13:04:51;;;;;;;12.37;9.30;;;;;;;;;;737340;186;918731;-59
2022/10/15 13:07:16;;;;;;;16.27;9.57;;;;;;;;;;743169;184;819186;-62
2022/10/15 13:09:42;;;;;;;18.23;9.57;;;;;;;;;;747682;186;816009;-66
2022/10/15 13:12:08;;;;;;;11.97;9.63;;;;;;;;;;739559;185;917808;-66
2022/10/15 13:14:38;;;;;;;18.42;10.85;;;;;;;;;;741467;186;925415;-60
2022/10/15 13:17:04;;;;;;;15.37;10.67;;;;;;;;;;742136;184;817449;-66
2022/10/15 13:19:30;;;;;;;17.90;10.27;;;;;;;;;;746876;186;918869;-60
2022/10/15 13:21:56;;;;;;;13.60;10.30;;;;;;;;;;743539;187;918178;-65
2022/10/15 13:24:22;;;;;;;12.57;9.80;;;;;;;;;;742971;185;922646;-58
2022/10/15 13:26:48;;;;;;;14.63;10.30;;;;;;;;;;746530;187;814547;-60
2022/10/15 13:29:14;;;;;;;16.50;10.90;;;;;;;;;;745085;184;628218;-59
2022/10/15 13:31:43;;;;;;;17.60;10.97;;;;;;;;;;741523;187;864717;-59
2022/10/15 13:34:07;;;;;;;11.90;9.80;;;;;;;;;;744046;186;919248;-59
2022/10/15 13:36:33;;;;;;;16.67;10.90;;;;;;;;;;746006;186;816627;-59
2022/10/15 13:39:00;;;;;;;12.40;10.40;;;;;;;;;;744325;185;816859;-58
2022/10/15 13:41:26;;;;;;;22.13;13.30;;;;;;;;;;743253;187;893427;-65
2022/10/15 13:43:53;;;;;;;16.60;10.30;;;;;;;;;;747983;186;820330;-65
2022/10/15 13:46:18;;;;;;;16.33;8.80;;;;;;;;;;745719;185;894283;-65
2022/10/15 13:48:44;;;;;;;12.30;9.70;;;;;;;;;;747287;186;766554;-58
2022/10/15 13:51:12;;;;;;;10.50;8.47;;;;;;;;;;747412;187;915252;-65
2022/10/15 13:53:36;;;;;;;13.67;9.10;;;;;;;;;;741220;185;918799;-64
2022/10/15 13:56:02;;;;;;;12.70;9.30;;;;;;;;;;745639;184;629671;-65
2022/10/15 13:58:30;;;;;;;12.37;8.17;;;;;;;;;;745219;187;919781;-64
2022/10/15 14:00:56;;;;;;;15.53;11.00;;;;;;;;;;747588;185;916192;-58
2022/10/15 14:03:22;;;;;;;15.40;10.80;;;;;;;;;;743539;185;918961;-59